Airport Name : New Castle

Other Name : New Castle

ICAO : KILG

IATA : ILG

FAA : ILG

Latitude : 39.678722

Longitude : -75.606528

Country : United States

Local Date and Time : 20 Jul 2024 11:19

 

TAF (Terminal Aerodrome Forecast)

KILG 201120Z 2012/2112 VRB03KT P6SM SCT250 FM201500 17009KT P6SM BKN250 FM210000 18005KT P6SM BKN200 PROB30 2100/2103 6SM -SHRA BR BKN035

 

METAR (METeorological Aerodrome Report)

KILG 201451Z AUTO 14004KT 10SM OVC100 26/22 A3012 RMK AO2 SLP199 T02560217 58003 $

KILG 201351Z AUTO 19004KT 10SM BKN100 24/21 A3012 RMK AO2 SLP199 T02440206 $

KILG 201251Z AUTO 20005KT 10SM OVC100 23/19 A3014 RMK AO2 SLP205 T02280194 $

KILG 201151Z AUTO 21005KT 10SM CLR 22/19 A3013 RMK AO2 SLP202 T02220189 10222 20206 53004 $